createdAt,value
2018-08-10T00:01:45.221Z,8.37
2018-08-10T00:04:13.751Z,8.70
2018-08-10T00:06:42.340Z,8.83
2018-08-10T00:09:11.777Z,9.40
2018-08-10T00:11:40.677Z,8.53
2018-08-10T00:14:09.417Z,8.53
2018-08-10T00:16:37.900Z,8.67
2018-08-10T00:19:06.002Z,8.63
2018-08-10T00:21:34.551Z,9.13
2018-08-10T00:24:03.038Z,10.13
2018-08-10T00:26:31.516Z,8.80
2018-08-10T00:29:00.099Z,8.63
2018-08-10T00:31:28.296Z,8.80
2018-08-10T00:33:56.750Z,8.27
2018-08-10T00:36:25.348Z,8.80
2018-08-10T00:38:53.919Z,8.70
2018-08-10T00:41:22.503Z,8.40
2018-08-10T00:43:51.087Z,8.40
2018-08-10T00:46:19.604Z,8.77
2018-08-10T00:48:48.145Z,9.30
2018-08-10T00:51:17.049Z,8.23
2018-08-10T00:53:45.925Z,8.50
2018-08-10T00:56:14.453Z,8.57
2018-08-10T00:58:43.091Z,9.60
2018-08-10T01:01:11.576Z,8.40
2018-08-10T01:03:40.003Z,8.63
2018-08-10T01:06:08.540Z,8.10
2018-08-10T01:08:36.980Z,7.93
2018-08-10T01:11:05.500Z,8.80
2018-08-10T01:13:34.046Z,8.10
2018-08-10T01:16:02.457Z,8.17
2018-08-10T01:18:30.882Z,8.23
2018-08-10T01:20:59.315Z,8.80
2018-08-10T01:23:27.797Z,8.33
2018-08-10T01:25:56.288Z,8.53
2018-08-10T01:28:24.949Z,8.83
2018-08-10T01:30:53.450Z,8.63
2018-08-10T01:33:22.025Z,8.13
2018-08-10T01:35:50.525Z,7.60
2018-08-10T01:38:19.104Z,8.20
2018-08-10T01:40:47.687Z,9.43
2018-08-10T01:43:16.221Z,8.37
2018-08-10T01:45:44.552Z,9.83
2018-08-10T01:48:12.777Z,9.83
2018-08-10T01:50:41.326Z,9.93
2018-08-10T01:53:09.877Z,10.10
2018-08-10T01:55:38.557Z,10.43
2018-08-10T01:58:41.200Z,10.77
2018-08-10T02:01:10.138Z,9.80
2018-08-10T02:03:38.716Z,11.07
2018-08-10T02:06:07.505Z,11.40
2018-08-10T02:08:35.986Z,11.50
2018-08-10T02:11:04.565Z,11.77
2018-08-10T02:13:33.147Z,11.83
2018-08-10T02:16:01.633Z,12.00
2018-08-10T02:18:30.539Z,12.47
2018-08-10T02:20:58.896Z,11.90
2018-08-10T02:23:27.274Z,10.73
2018-08-10T02:25:55.857Z,12.23
2018-08-10T02:28:24.345Z,11.43
2018-08-10T02:30:52.826Z,12.20
2018-08-10T02:33:21.317Z,12.47
2018-08-10T02:35:49.785Z,12.23
2018-08-10T02:38:18.163Z,12.57
2018-08-10T02:40:46.742Z,13.20
2018-08-10T02:43:15.326Z,12.43
2018-08-10T02:45:43.911Z,13.53
2018-08-10T02:48:12.593Z,12.83
2018-08-10T02:50:41.176Z,13.13
2018-08-10T02:53:09.655Z,13.33
2018-08-10T02:55:38.101Z,12.37
2018-08-10T02:58:06.266Z,11.53
2018-08-10T03:00:34.896Z,12.13
2018-08-10T03:03:03.477Z,11.73
2018-08-10T03:05:32.162Z,11.63
2018-08-10T03:08:00.748Z,11.23
2018-08-10T03:10:29.324Z,10.90
2018-08-10T03:12:57.822Z,10.63
2018-08-10T03:15:26.256Z,10.37
2018-08-10T03:17:54.877Z,10.20
2018-08-10T03:20:23.580Z,10.70
2018-08-10T03:22:52.246Z,10.07
2018-08-10T03:25:20.739Z,10.60
2018-08-10T03:27:49.723Z,10.87
2018-08-10T03:30:18.200Z,11.07
2018-08-10T03:32:46.779Z,10.20
2018-08-10T03:35:15.355Z,10.73
2018-08-10T03:37:43.908Z,9.70
2018-08-10T03:40:14.065Z,10.33
2018-08-10T03:42:42.664Z,11.03
2018-08-10T03:45:11.230Z,10.07
2018-08-10T03:47:40.310Z,9.77
2018-08-10T03:50:09.849Z,9.80
2018-08-10T03:52:38.516Z,9.30
2018-08-10T03:55:06.919Z,9.80
2018-08-10T03:57:35.377Z,9.57
2018-08-10T04:00:04.981Z,9.90
2018-08-10T04:02:33.671Z,9.23
2018-08-10T04:05:02.058Z,18.73
2018-08-10T04:07:30.753Z,10.50
2018-08-10T04:09:59.021Z,9.97
2018-08-10T04:12:27.488Z,10.97
2018-08-10T04:14:55.725Z,12.47
2018-08-10T04:17:25.933Z,10.20
2018-08-10T04:19:54.931Z,12.10
2018-08-10T04:22:24.281Z,11.03
2018-08-10T04:24:52.618Z,11.27
2018-08-10T04:27:21.136Z,10.43
2018-08-10T04:29:49.924Z,11.30
2018-08-10T04:32:18.053Z,11.13
2018-08-10T04:34:46.578Z,11.80
2018-08-10T04:37:14.997Z,11.17
2018-08-10T04:39:43.438Z,11.70
2018-08-10T04:42:12.133Z,12.40
2018-08-10T04:44:40.610Z,12.53
2018-08-10T04:47:09.186Z,12.53
2018-08-10T04:49:37.749Z,12.57
2018-08-10T04:52:06.539Z,12.97
2018-08-10T04:54:35.143Z,12.70
2018-08-10T04:57:03.728Z,13.03
2018-08-10T04:59:32.306Z,12.97
2018-08-10T05:02:00.791Z,13.63
2018-08-10T05:04:29.189Z,13.90
2018-08-10T05:06:57.358Z,13.70
2018-08-10T05:09:25.524Z,13.47
2018-08-10T05:11:53.658Z,14.13
2018-08-10T05:14:22.373Z,15.77
2018-08-10T05:16:50.956Z,15.70
2018-08-10T05:19:19.435Z,15.40
2018-08-10T05:21:47.815Z,19.33
2018-08-10T05:24:16.192Z,16.47
2018-08-10T05:26:44.673Z,15.70
2018-08-10T05:29:13.255Z,16.07
2018-08-10T05:31:41.838Z,17.40
2018-08-10T05:34:10.246Z,20.40
2018-08-10T05:36:38.798Z,23.10
2018-08-10T05:39:08.252Z,24.17
2018-08-10T05:41:36.483Z,26.13
2018-08-10T05:44:05.184Z,25.20
2018-08-10T05:46:33.849Z,24.00
2018-08-10T05:49:02.432Z,24.30
2018-08-10T05:51:30.905Z,22.60
2018-08-10T05:53:59.495Z,20.80
2018-08-10T05:56:27.977Z,22.87
2018-08-10T05:58:56.461Z,21.23
2018-08-10T06:01:25.042Z,20.50
2018-08-10T06:03:53.840Z,20.20
2018-08-10T06:06:22.323Z,20.27
2018-08-10T06:08:50.904Z,20.70
2018-08-10T06:11:19.477Z,19.17
2018-08-10T06:13:48.057Z,20.53
2018-08-10T06:16:16.649Z,20.77
2018-08-10T06:18:45.666Z,20.07
2018-08-10T06:21:14.216Z,20.53
2018-08-10T06:23:42.801Z,21.47
2018-08-10T06:26:11.382Z,20.50
2018-08-10T06:28:39.790Z,19.00
2018-08-10T06:31:08.346Z,20.27
2018-08-10T06:33:37.451Z,20.13
2018-08-10T06:36:06.842Z,20.30
2018-08-10T06:38:35.547Z,18.87
2018-08-10T06:41:04.318Z,19.50
2018-08-10T06:43:34.146Z,22.47
2018-08-10T06:46:02.605Z,21.33
2018-08-10T06:48:31.338Z,20.10
2018-08-10T06:50:59.978Z,16.63
2018-08-10T06:53:28.565Z,18.43
2018-08-10T06:55:57.107Z,18.20
2018-08-10T06:58:25.438Z,17.10
2018-08-10T07:00:53.950Z,17.60
2018-08-10T07:03:22.584Z,16.17
2018-08-10T07:05:51.069Z,15.03
2018-08-10T07:08:19.554Z,16.83
2018-08-10T07:10:48.026Z,16.17
2018-08-10T07:13:16.453Z,16.90
2018-08-10T07:15:44.991Z,15.40
2018-08-10T07:18:13.575Z,15.53
2018-08-10T07:20:42.155Z,15.40
2018-08-10T07:23:10.541Z,16.20
2018-08-10T07:25:39.016Z,14.90
2018-08-10T07:28:07.495Z,15.13
2018-08-10T07:30:36.065Z,15.17
2018-08-10T07:33:04.766Z,14.43
2018-08-10T07:35:33.348Z,13.47
2018-08-10T07:38:01.935Z,12.90
2018-08-10T07:40:30.418Z,13.03
2018-08-10T07:42:58.995Z,13.70
2018-08-10T07:45:27.475Z,13.88
